NCAR-RAP Real-Time Weather Data

Output produced by METARs form (17 September 2019  17:14 UTC)
found at http://weather.rap.ucar.edu/surface/
 
KDLH 171655Z 21008KT 3SM -TSRA SCT025CB OVC120 19/17 A3003 RMK AO2 VIS 1 3/4 RWY 27 PRESFR SLP170 OCNL LTGIC ALQDS TS ALQDS MOV NE P0020 T01940167
KDLH 171616Z 21010KT 2SM -TSRA BR SCT025CB OVC120 18/16 A3008 RMK AO2 VIS 1V5 OCNL LTGIC ALQDS TS ALQDS MOV NE P0005 T01830161
KDLH 171555Z 18006KT 3SM -TSRA FEW019 SCT047CB OVC090 18/16 A3007 RMK AO2 TSB16E31B32 SLP185 OCNL LTGIC OHD-SW TS OHD-SW MOV NE P0008 T01830156
KDLH 171522Z 18005KT 6SM -TSRA BR SCT047CB BKN120 17/15 A3006 RMK AO2 TSB16 OCNL LTGIC SW TS SW MOV NE P0000 T01720150
KDLH 171455Z 14003KT 10SM -RA SCT047CB BKN120 17/15 A3004 RMK AO2 RAB25 SLP175 OCNL LTGIC SW CB SW MOV NE P0000 60000 T01720150 51004
KDLH 171355Z 14005KT 10SM BKN100 17/15 A3004 RMK AO2 SLP174 CB DSNT SW T01720150
KDLH 171255Z 13006KT 10SM BKN100 17/14 A3003 RMK AO2 SLP173 T01670144
KDLH 171155Z 13007KT 10SM SCT120 16/14 A3003 RMK AO2 SLP171 T01610139 10161 20139 53007
KDLH 171055Z 14005KT 10SM CLR 16/14 A3002 RMK AO2 SLP166 T01610139
KDLH 170955Z 14004KT 10SM CLR 16/14 A3001 RMK AO2 SLP163 T01610139
KDLH 170855Z 13004KT 10SM CLR 15/13 A3001 RMK AO2 SLP163 T01500133 51001
KDLH 170755Z 13005KT 10SM CLR 14/13 A3001 RMK AO2 SLP161 T01440128
KDLH 170720Z 13004KT 3SM BR SCT002 14/12 A3001 RMK AO2 T01440122
KDLH 170705Z 12005KT 3/4SM R09/P6000FT BR VV002 14/12 A3001 RMK AO2 T01390122
KDLH 170655Z 13005KT 3/4SM R09/P6000FT BR VV001 14/12 A3001 RMK AO2 SLP162 T01390122
KDLH 170555Z 13006KT 1/2SM R09/P6000FT FG VV002 14/12 A3000 RMK AO2 TWR VIS 3/4 SLP161 T01390122 10156 20133 402280117 56002
KDLH 170551Z 13005KT 1/2SM R09/P6000FT FG VV002 14/12 A3000 RMK AO2 TWR VIS 3/4
KDLH 170455Z 12006KT 1/4SM R09/2200V2800FT FG VV002 14/12 A3001 RMK AO2 TWR VIS 1/2 SLP163 T01390122
KDLH 170355Z 12008KT 1/4SM R09/2600V4000FT FG VV002 14/12 A3001 RMK AO2 TWR VIS 1/2 SLP165 T01390122
KDLH 170255Z 11009KT 1/4SM R09/3000V5000FT FG VV002 14/13 A3001 RMK AO2 TWR VIS 1 SLP166 T01440128 52005
KDLH 170232Z 11010KT 1/4SM R09/3500V5000FT FG VV002 14/13 A3001 RMK AO2 TWR VIS 1 T01440128
KDLH 170055Z 12009KT 3/4SM R09/P6000FT BR VV002 14/13 A3000 RMK AO2 TWR VIS 1 SLP165 T01440128
KDLH 170026Z 12008KT 3/4SM R09/P6000FT BR OVC002 15/13 A3000 RMK AO2 TWR VIS 1 T01500128
KDLH 170014Z 11009KT 6SM BR BKN003 15/13 A3000 RMK AO2 VIS NE-SE 1 T01500128
KDLH 162355Z 12009KT 10SM FEW003 16/13 A3000 RMK AO2 SLP162 T01560128 10228 20156 56007
KDLH 162255Z 12011KT 10SM SCT080 18/14 A3000 RMK AO2 SLP162 T01780139
KDLH 162155Z 12011KT 10SM SCT080 19/14 A3001 RMK AO2 SLP164 T01890139
KDLH 162055Z 13012KT 10SM SCT080 19/14 A3002 RMK AO2 SLP168 T01940139 56009